Time;durP1;ratioP1;P1;durP2;ratioP2;P2;SDS_P1;SDS_P2;PMS_P1;PMS_P2;Temp;Humidity;BMP_temperature;BMP_pressure;BME280_temperature;BME280_humidity;BME280_pressure;Samples;Min_cycle;Max_cycle;Signal;HPM_P1;HPM_P2
2022/10/31 00:00:49;;;;;;;9.40;7.30;;;13.90;85.20;;;;;;5016047;28;21165;-78
2022/10/31 00:03:17;;;;;;;10.30;6.53;;;13.90;85.10;;;;;;5001521;28;20481;-77
2022/10/31 00:05:48;;;;;;;10.77;7.10;;;13.90;85.00;;;;;;5001672;28;20497;-77
2022/10/31 00:08:16;;;;;;;9.43;7.27;;;13.90;85.00;;;;;;5003632;28;20507;-76
2022/10/31 00:10:45;;;;;;;9.03;6.80;;;13.90;85.00;;;;;;5004676;28;20462;-78
2022/10/31 00:13:15;;;;;;;13.73;7.60;;;13.90;84.90;;;;;;5023879;28;20514;-79
2022/10/31 00:15:44;;;;;;;10.33;6.80;;;13.90;84.90;;;;;;5004623;28;21046;-76
2022/10/31 00:18:12;;;;;;;8.93;7.10;;;13.80;84.80;;;;;;5002267;28;20458;-77
2022/10/31 00:20:41;;;;;;;9.57;7.37;;;13.80;84.80;;;;;;5000933;28;20515;-77
2022/10/31 00:23:09;;;;;;;9.57;7.23;;;13.80;84.80;;;;;;4998478;28;20445;-78
2022/10/31 00:25:39;;;;;;;10.67;8.50;;;13.80;84.80;;;;;;5017269;28;20476;-76
2022/10/31 00:28:10;;;;;;;10.90;7.27;;;13.80;84.80;;;;;;5007012;28;20527;-78
2022/10/31 00:30:38;;;;;;;15.37;8.00;;;13.70;84.70;;;;;;5023086;28;20476;-78
2022/10/31 00:33:07;;;;;;;10.40;7.90;;;13.70;84.60;;;;;;5005932;28;20480;-77
2022/10/31 00:35:35;;;;;;;15.00;8.10;;;13.70;84.60;;;;;;5003058;28;20497;-77
2022/10/31 00:38:03;;;;;;;10.27;7.10;;;13.70;84.60;;;;;;5005789;28;20469;-78
2022/10/31 00:40:31;;;;;;;12.90;7.90;;;13.60;84.40;;;;;;5003658;28;20461;-77
2022/10/31 00:42:59;;;;;;;10.80;7.10;;;13.50;84.40;;;;;;5005373;28;20467;-78
2022/10/31 00:45:27;;;;;;;11.57;8.23;;;13.50;84.50;;;;;;5002066;28;20492;-78
2022/10/31 00:47:55;;;;;;;10.17;7.73;;;13.50;84.50;;;;;;5003659;28;20869;-77
2022/10/31 00:50:25;;;;;;;20.93;7.37;;;13.40;84.50;;;;;;5000702;28;20469;-77
2022/10/31 00:52:53;;;;;;;11.60;7.70;;;13.40;84.40;;;;;;5002537;28;20469;-77
2022/10/31 00:55:21;;;;;;;13.77;8.07;;;13.30;84.40;;;;;;5010084;28;20472;-76
2022/10/31 00:57:49;;;;;;;10.00;7.47;;;13.30;84.30;;;;;;5005645;28;20461;-77
2022/10/31 01:00:18;;;;;;;10.60;7.30;;;13.30;84.40;;;;;;5005311;28;20523;-78
2022/10/31 01:02:46;;;;;;;9.47;7.50;;;13.30;84.50;;;;;;5004915;28;20550;-77
2022/10/31 01:05:15;;;;;;;12.23;7.50;;;13.30;84.60;;;;;;5003545;28;20475;-78
2022/10/31 01:07:45;;;;;;;12.37;8.43;;;13.30;84.60;;;;;;4998477;28;20481;-77
2022/10/31 01:10:13;;;;;;;8.93;7.13;;;13.30;84.60;;;;;;5005842;28;20458;-78
2022/10/31 01:12:45;;;;;;;10.57;6.80;;;13.40;84.60;;;;;;5022955;28;21067;-77
2022/10/31 01:15:18;;;;;;;9.03;6.53;;;13.40;84.50;;;;;;5003887;28;20471;-78
2022/10/31 01:17:46;;;;;;;10.10;7.10;;;13.40;84.40;;;;;;5006911;28;20453;-77
2022/10/31 01:20:15;;;;;;;10.60;6.53;;;13.40;84.40;;;;;;5023397;28;20477;-78
2022/10/31 01:22:44;;;;;;;10.07;6.30;;;13.40;84.40;;;;;;5003192;28;20462;-78
2022/10/31 01:25:12;;;;;;;9.40;6.67;;;13.40;84.30;;;;;;5008340;28;20897;-76
2022/10/31 01:27:40;;;;;;;8.23;5.57;;;13.40;84.30;;;;;;4999131;28;20465;-77
2022/10/31 01:30:09;;;;;;;11.20;6.53;;;13.40;84.30;;;;;;5004360;28;20531;-77
2022/10/31 01:32:37;;;;;;;9.70;6.17;;;13.40;84.30;;;;;;4998670;28;20444;-77
2022/10/31 01:35:06;;;;;;;9.50;6.70;;;13.40;84.30;;;;;;5019490;28;20814;-77
2022/10/31 01:37:34;;;;;;;10.67;7.50;;;13.40;84.30;;;;;;5005901;28;20465;-77
2022/10/31 01:40:04;;;;;;;11.87;8.83;;;13.40;84.20;;;;;;5004242;28;20471;-78
2022/10/31 01:42:32;;;;;;;17.33;8.53;;;13.40;84.20;;;;;;5001144;28;20459;-77
2022/10/31 01:45:01;;;;;;;11.23;7.47;;;13.40;84.20;;;;;;5015834;28;20940;-77
2022/10/31 01:47:41;;;;;;;12.10;7.53;;;13.40;84.10;;;;;;5004581;28;20573;-76
2022/10/31 01:50:16;;;;;;;9.83;7.03;;;13.40;84.20;;;;;;5001572;28;20452;-76
2022/10/31 01:52:48;;;;;;;9.30;6.63;;;13.40;84.20;;;;;;5002065;28;20480;-78
2022/10/31 01:55:22;;;;;;;8.27;6.50;;;13.40;84.20;;;;;;5019871;28;20491;-78
2022/10/31 01:58:00;;;;;;;9.90;6.63;;;13.40;84.10;;;;;;5002738;28;20495;-78
2022/10/31 02:00:29;;;;;;;8.27;6.37;;;13.40;84.10;;;;;;5000837;28;20454;-76
2022/10/31 02:02:57;;;;;;;7.90;6.43;;;13.40;84.10;;;;;;5001955;28;20472;-78
2022/10/31 02:05:29;;;;;;;8.97;6.07;;;13.40;84.20;;;;;;5003616;28;20492;-77
2022/10/31 02:08:00;;;;;;;7.73;5.37;;;13.40;84.20;;;;;;5004205;28;20487;-77
2022/10/31 02:10:32;;;;;;;9.30;4.37;;;13.40;84.20;;;;;;5002003;28;20538;-78
2022/10/31 02:13:03;;;;;;;6.00;4.47;;;13.30;84.20;;;;;;5000147;28;20974;-77
2022/10/31 02:15:32;;;;;;;7.20;5.77;;;13.40;84.10;;;;;;5020504;28;20480;-78
2022/10/31 02:18:01;;;;;;;7.50;5.73;;;13.30;84.20;;;;;;5004794;28;20457;-78
2022/10/31 02:20:37;;;;;;;9.83;5.50;;;13.30;84.20;;;;;;4998668;28;20566;-77
2022/10/31 02:23:59;;;;;;;6.57;5.03;;;13.40;84.30;;;;;;5002345;28;20814;-77
2022/10/31 02:26:52;;;;;;;9.23;5.80;;;13.40;84.30;;;;;;5001292;28;20494;-78
2022/10/31 02:29:39;;;;;;;6.90;4.73;;;13.30;84.20;;;;;;5003957;28;20467;-76
2022/10/31 02:32:13;;;;;;;6.30;4.20;;;13.40;84.30;;;;;;5002605;28;20457;-77
2022/10/31 02:34:49;;;;;;;5.90;4.30;;;13.40;84.30;;;;;;5018439;28;20466;-77
2022/10/31 02:37:24;;;;;;;7.40;5.70;;;13.40;84.40;;;;;;4999610;28;20487;-77
2022/10/31 02:39:57;;;;;;;9.10;5.40;;;13.40;84.40;;;;;;4997385;28;20528;-78
2022/10/31 02:42:46;;;;;;;7.93;5.13;;;13.40;84.40;;;;;;5005121;28;20544;-78
2022/10/31 02:45:26;;;;;;;7.40;4.50;;;13.40;84.40;;;;;;5014691;28;20576;-78
2022/10/31 02:48:01;;;;;;;7.60;4.00;;;13.40;84.40;;;;;;5013119;28;20456;-77
2022/10/31 02:50:34;;;;;;;15.90;5.10;;;13.40;84.30;;;;;;5016550;28;20498;-78
2022/10/31 02:53:03;;;;;;;5.77;3.73;;;13.40;84.30;;;;;;5001574;28;20511;-77
2022/10/31 02:55:49;;;;;;;7.07;4.50;;;13.40;84.30;;;;;;4998208;28;20465;-78
2022/10/31 02:58:22;;;;;;;6.50;4.60;;;13.40;84.30;;;;;;5003615;28;20461;-77
2022/10/31 03:01:13;;;;;;;6.13;4.40;;;13.40;84.30;;;;;;5004547;28;21205;-78
2022/10/31 03:03:55;;;;;;;6.30;4.60;;;13.40;84.30;;;;;;4957659;28;20556;-78
2022/10/31 03:06:29;;;;;;;7.10;4.33;;;13.40;84.20;;;;;;5004319;28;20488;-78
2022/10/31 03:09:05;;;;;;;8.17;4.83;;;13.30;84.10;;;;;;5006806;28;20946;-77
2022/10/31 03:11:44;;;;;;;5.80;4.17;;;13.30;84.20;;;;;;5004007;28;20460;-78
2022/10/31 03:14:16;;;;;;;7.20;4.80;;;13.30;84.10;;;;;;5002198;28;20461;-78
2022/10/31 03:16:49;;;;;;;9.40;4.90;;;13.20;84.10;;;;;;5023123;28;21076;-77
2022/10/31 03:19:24;;;;;;;5.47;3.83;;;13.20;84.10;;;;;;5001781;28;20548;-77
2022/10/31 03:21:56;;;;;;;6.57;4.27;;;13.20;84.10;;;;;;5001013;28;21309;-78
2022/10/31 03:24:30;;;;;;;5.90;4.00;;;13.10;84.10;;;;;;5001621;28;21000;-77
2022/10/31 03:27:01;;;;;;;5.17;3.93;;;13.20;84.20;;;;;;5006965;28;20493;-78
2022/10/31 03:29:35;;;;;;;5.70;4.10;;;13.10;84.20;;;;;;5003944;28;20545;-77
2022/10/31 03:32:08;;;;;;;5.80;4.10;;;13.10;84.10;;;;;;5006977;28;20962;-77
2022/10/31 03:34:38;;;;;;;5.73;4.00;;;13.10;84.10;;;;;;5008248;28;20466;-77
2022/10/31 03:37:11;;;;;;;6.30;4.13;;;13.10;84.10;;;;;;5016325;28;20465;-78
2022/10/31 03:39:44;;;;;;;5.47;3.90;;;13.10;84.00;;;;;;5016742;28;20521;-77
2022/10/31 03:42:14;;;;;;;5.43;3.90;;;13.10;83.90;;;;;;5012497;28;21245;-78
2022/10/31 03:44:46;;;;;;;4.80;3.47;;;13.00;83.90;;;;;;5020779;28;20978;-78
2022/10/31 03:47:15;;;;;;;5.60;3.63;;;13.00;83.90;;;;;;5021500;28;20485;-78
2022/10/31 03:49:45;;;;;;;6.10;3.50;;;13.00;83.90;;;;;;5017570;28;20464;-76
2022/10/31 03:52:22;;;;;;;5.07;3.53;;;13.00;83.90;;;;;;5005184;28;20993;-78
2022/10/31 03:54:56;;;;;;;5.20;3.63;;;13.00;83.70;;;;;;5005308;28;20448;-78
2022/10/31 03:57:31;;;;;;;4.70;3.07;;;13.00;83.60;;;;;;5001163;28;20462;-78
2022/10/31 04:00:04;;;;;;;4.60;2.93;;;12.90;83.50;;;;;;5005034;28;20511;-79
2022/10/31 04:02:36;;;;;;;6.00;3.80;;;12.90;83.50;;;;;;4998329;28;20996;-77
2022/10/31 04:05:08;;;;;;;6.67;3.63;;;12.90;83.40;;;;;;5005421;28;20448;-76
2022/10/31 04:07:40;;;;;;;6.03;3.97;;;12.90;83.40;;;;;;5021440;28;20504;-77
2022/10/31 04:10:12;;;;;;;5.17;3.43;;;12.90;83.30;;;;;;5001137;28;20453;-78
2022/10/31 04:12:46;;;;;;;7.23;3.77;;;12.80;83.40;;;;;;5018270;28;20458;-77
2022/10/31 04:15:21;;;;;;;7.07;4.40;;;12.80;83.40;;;;;;5001904;28;20480;-77
2022/10/31 04:17:52;;;;;;;6.03;3.93;;;12.80;83.30;;;;;;5017509;28;20457;-77
2022/10/31 04:20:31;;;;;;;6.03;3.77;;;12.80;83.30;;;;;;5001996;28;20540;-77
2022/10/31 04:22:59;;;;;;;7.53;4.00;;;12.80;83.30;;;;;;5006630;28;20484;-78
2022/10/31 04:25:27;;;;;;;6.67;4.10;;;12.80;83.20;;;;;;5019555;28;20478;-76
2022/10/31 04:27:56;;;;;;;5.27;3.80;;;12.70;83.20;;;;;;5005287;28;20451;-78
2022/10/31 04:30:24;;;;;;;5.63;3.60;;;12.70;83.30;;;;;;4999882;28;20549;-78
2022/10/31 04:32:52;;;;;;;5.90;3.90;;;12.70;83.20;;;;;;5006317;28;20475;-78
2022/10/31 04:35:21;;;;;;;6.30;4.47;;;12.70;83.20;;;;;;5003313;28;20476;-78
2022/10/31 04:37:49;;;;;;;6.27;4.33;;;12.70;83.20;;;;;;5003152;28;20468;-78
2022/10/31 04:40:17;;;;;;;5.37;4.00;;;12.70;83.10;;;;;;5021568;28;20556;-78
2022/10/31 04:42:45;;;;;;;5.20;3.90;;;12.70;83.10;;;;;;5002046;28;20442;-77
2022/10/31 04:45:14;;;;;;;5.40;3.60;;;12.70;83.00;;;;;;5005677;28;20555;-78
2022/10/31 04:47:50;;;;;;;4.80;3.33;;;12.70;83.00;;;;;;5017669;28;20477;-77
2022/10/31 04:50:18;;;;;;;5.20;3.30;;;12.70;82.80;;;;;;5001005;28;20464;-78
2022/10/31 04:52:49;;;;;;;4.90;3.40;;;12.60;82.70;;;;;;5020451;28;20553;-77
2022/10/31 04:55:21;;;;;;;5.40;3.30;;;12.60;82.70;;;;;;5003064;28;20516;-77
2022/10/31 04:58:16;;;;;;;5.37;3.50;;;12.50;82.80;;;;;;5002518;28;20596;-78
2022/10/31 05:00:53;;;;;;;7.50;4.50;;;12.50;82.70;;;;;;5008598;28;20465;-77
2022/10/31 05:03:22;;;;;;;6.80;3.80;;;12.50;82.70;;;;;;5013262;28;20485;-78
2022/10/31 05:05:51;;;;;;;5.60;3.87;;;12.50;82.70;;;;;;5014205;28;20484;-77
2022/10/31 05:08:21;;;;;;;5.20;3.20;;;12.50;82.60;;;;;;5022461;28;20489;-77
2022/10/31 05:10:51;;;;;;;4.80;2.93;;;12.50;82.60;;;;;;5012242;28;20480;-78
2022/10/31 05:13:19;;;;;;;5.13;3.23;;;12.40;82.50;;;;;;5033264;28;20985;-77
2022/10/31 05:16:35;;;;;;;5.80;3.70;;;12.40;82.50;;;;;;4959813;28;20519;-77
2022/10/31 05:19:39;;;;;;;4.67;2.97;;;12.40;82.40;;;;;;4954749;28;20458;-78
2022/10/31 05:22:27;;;;;;;4.90;3.10;;;12.30;82.40;;;;;;4999299;28;20472;-76
2022/10/31 05:24:57;;;;;;;5.27;3.70;;;12.30;82.40;;;;;;5016496;28;20822;-77
2022/10/31 05:27:25;;;;;;;5.30;3.83;;;12.30;82.30;;;;;;5004074;28;20488;-76
2022/10/31 05:29:52;;;;;;;5.80;3.57;;;12.30;82.30;;;;;;5003344;28;20449;-75
2022/10/31 05:32:21;;;;;;;5.53;3.97;;;12.30;82.20;;;;;;5006767;28;20554;-78
2022/10/31 05:35:10;;;;;;;7.80;3.87;;;12.30;82.20;;;;;;5002608;28;20547;-77
2022/10/31 05:38:01;;;;;;;6.00;3.90;;;12.30;82.10;;;;;;5000226;28;20464;-76
2022/10/31 05:40:30;;;;;;;6.73;3.90;;;12.20;82.10;;;;;;5003551;28;20551;-75
2022/10/31 05:42:59;;;;;;;6.90;4.33;;;12.20;82.10;;;;;;5000549;28;20453;-78
2022/10/31 05:45:28;;;;;;;7.00;4.47;;;12.20;82.10;;;;;;5000952;28;20492;-77
2022/10/31 05:48:01;;;;;;;5.07;3.80;;;12.20;82.00;;;;;;5008071;28;20985;-78
2022/10/31 05:51:05;;;;;;;5.30;3.63;;;12.20;82.00;;;;;;4967310;28;20577;-76
2022/10/31 05:53:33;;;;;;;4.97;3.53;;;12.20;82.00;;;;;;4994832;28;20505;-77
2022/10/31 05:56:02;;;;;;;4.40;3.43;;;12.20;82.00;;;;;;5002516;28;22099;-77
2022/10/31 05:58:30;;;;;;;5.63;3.33;;;12.20;82.00;;;;;;5003976;28;20470;-78
2022/10/31 06:01:03;;;;;;;5.60;3.60;;;12.20;81.90;;;;;;5019882;28;21030;-78
2022/10/31 06:03:31;;;;;;;4.93;3.47;;;12.20;81.90;;;;;;4998425;28;20512;-78
2022/10/31 06:06:01;;;;;;;5.70;3.60;;;12.10;81.80;;;;;;5003237;28;20480;-78
2022/10/31 06:08:33;;;;;;;5.27;3.43;;;12.10;81.80;;;;;;5021043;28;20453;-78
2022/10/31 06:11:07;;;;;;;4.40;3.00;;;12.10;81.80;;;;;;5025626;28;20468;-79
2022/10/31 06:14:10;;;;;;;6.30;3.80;;;12.10;81.80;;;;;;4982847;28;20537;-77
2022/10/31 06:16:53;;;;;;;5.37;3.60;;;12.00;81.80;;;;;;5005143;28;20491;-76
2022/10/31 06:19:39;;;;;;;5.43;3.40;;;12.00;81.90;;;;;;5004723;28;21016;-78
2022/10/31 06:22:11;;;;;;;5.00;3.70;;;12.00;81.70;;;;;;5006685;28;20467;-77
2022/10/31 06:24:39;;;;;;;6.07;3.50;;;12.00;81.80;;;;;;5005666;28;20475;-77
2022/10/31 06:27:20;;;;;;;5.40;3.80;;;12.00;81.80;;;;;;5006993;28;20484;-77
2022/10/31 06:29:50;;;;;;;4.40;3.17;;;12.00;81.80;;;;;;5008032;28;20469;-77
2022/10/31 06:32:24;;;;;;;4.97;3.13;;;12.00;81.80;;;;;;5001523;28;20462;-78
2022/10/31 06:34:52;;;;;;;4.53;2.90;;;12.00;81.80;;;;;;4998877;28;20881;-78
2022/10/31 06:37:20;;;;;;;4.83;3.10;;;12.00;81.80;;;;;;5019761;28;20473;-78
2022/10/31 06:39:50;;;;;;;5.83;3.40;;;12.00;81.80;;;;;;5010317;28;20530;-78
2022/10/31 06:42:20;;;;;;;6.97;4.00;;;12.00;81.80;;;;;;5002923;28;21198;-78
2022/10/31 06:44:48;;;;;;;7.23;3.83;;;12.00;81.80;;;;;;5002979;28;20809;-78
2022/10/31 06:47:34;;;;;;;7.40;5.10;;;12.00;81.80;;;;;;4997130;28;20553;-78
2022/10/31 06:50:27;;;;;;;12.23;7.90;;;12.00;81.80;;;;;;4999845;28;20461;-78
2022/10/31 06:52:56;;;;;;;21.70;9.00;;;12.00;81.80;;;;;;5004011;28;20473;-78
2022/10/31 06:55:26;;;;;;;14.17;8.30;;;12.00;81.60;;;;;;5009598;28;20575;-78
2022/10/31 06:57:56;;;;;;;11.13;6.73;;;12.00;81.60;;;;;;5010451;28;20488;-77
2022/10/31 07:00:31;;;;;;;8.53;5.43;;;12.00;81.60;;;;;;5022722;28;20551;-77
2022/10/31 07:03:07;;;;;;;13.50;9.93;;;11.90;81.50;;;;;;5011259;28;20459;-77
2022/10/31 07:05:36;;;;;;;9.50;6.90;;;11.90;81.70;;;;;;5004714;28;20489;-77
2022/10/31 07:08:08;;;;;;;9.53;6.20;;;11.90;81.80;;;;;;5000304;28;20587;-77
2022/10/31 07:10:38;;;;;;;8.37;5.90;;;11.90;81.80;;;;;;5017768;28;20806;-77
2022/10/31 07:13:13;;;;;;;8.70;5.10;;;11.90;81.80;;;;;;5002565;28;20555;-76
2022/10/31 07:15:46;;;;;;;11.10;5.50;;;11.90;81.90;;;;;;5004517;28;21016;-76
2022/10/31 07:18:14;;;;;;;7.53;5.97;;;12.00;82.00;;;;;;4998222;28;20453;-77
2022/10/31 07:20:43;;;;;;;9.57;5.60;;;12.00;82.00;;;;;;5005466;28;20463;-78
2022/10/31 07:23:11;;;;;;;7.40;5.20;;;12.00;82.10;;;;;;5018425;28;20992;-77
2022/10/31 07:25:40;;;;;;;7.20;5.00;;;12.10;82.10;;;;;;5017463;28;21045;-78
2022/10/31 07:28:32;;;;;;;8.97;5.47;;;12.10;82.10;;;;;;5000432;28;20528;-77
2022/10/31 07:31:01;;;;;;;10.13;5.90;;;12.20;82.00;;;;;;5010613;28;22224;-75
2022/10/31 07:33:29;;;;;;;8.27;5.90;;;12.20;82.00;;;;;;4996812;28;20462;-76
2022/10/31 07:36:23;;;;;;;10.27;5.73;;;12.20;82.10;;;;;;4997246;28;20988;-78
2022/10/31 07:38:53;;;;;;;7.17;4.90;;;12.20;82.10;;;;;;5019443;28;20508;-76
2022/10/31 07:41:22;;;;;;;10.50;4.77;;;12.30;82.20;;;;;;5006261;28;20842;-77
2022/10/31 07:43:51;;;;;;;7.20;3.87;;;12.30;82.20;;;;;;5018622;28;20943;-77
2022/10/31 07:46:52;;;;;;;6.13;4.03;;;12.40;82.30;;;;;;4972818;28;21000;-77
2022/10/31 07:49:39;;;;;;;5.30;3.50;;;12.40;82.40;;;;;;5004683;28;20464;-77
2022/10/31 07:52:36;;;;;;;5.83;3.50;;;12.50;82.40;;;;;;4951476;28;20472;-77
2022/10/31 07:55:40;;;;;;;6.37;3.87;;;12.50;82.50;;;;;;5004855;28;20551;-77
2022/10/31 07:58:10;;;;;;;6.37;3.73;;;12.50;82.50;;;;;;5006784;28;20453;-77
2022/10/31 08:00:42;;;;;;;6.00;3.93;;;12.60;82.50;;;;;;5010494;28;20461;-77
2022/10/31 08:03:15;;;;;;;5.33;3.50;;;12.60;82.50;;;;;;5014473;28;20989;-77
2022/10/31 08:06:04;;;;;;;5.47;3.73;;;12.60;82.60;;;;;;4986663;28;20472;-77
2022/10/31 08:08:51;;;;;;;5.10;3.73;;;12.70;82.60;;;;;;5001157;28;20467;-77
2022/10/31 08:11:19;;;;;;;8.07;4.00;;;12.70;82.50;;;;;;4998744;28;20508;-77
2022/10/31 08:13:48;;;;;;;8.33;4.80;;;12.70;82.60;;;;;;5018918;28;20535;-77
2022/10/31 08:16:17;;;;;;;7.00;4.23;;;12.70;82.70;;;;;;5023124;28;20526;-77
2022/10/31 08:18:55;;;;;;;8.83;4.80;;;12.70;82.70;;;;;;5016128;28;20454;-77
2022/10/31 08:21:24;;;;;;;13.57;4.97;;;12.70;82.70;;;;;;5023576;28;20515;-77
2022/10/31 08:23:52;;;;;;;7.50;4.53;;;12.70;82.80;;;;;;5004488;28;20463;-77
2022/10/31 08:26:23;;;;;;;6.13;4.73;;;12.70;82.80;;;;;;5005544;28;20584;-77
2022/10/31 08:28:54;;;;;;;12.10;6.13;;;12.80;82.90;;;;;;5016691;28;20481;-77
2022/10/31 08:31:27;;;;;;;10.10;5.77;;;12.80;82.90;;;;;;5016428;28;20455;-75
2022/10/31 08:34:19;;;;;;;8.30;5.57;;;12.80;82.90;;;;;;5007435;28;20981;-76
2022/10/31 08:37:05;;;;;;;9.00;5.60;;;12.80;82.90;;;;;;5007229;28;20530;-76
2022/10/31 08:39:40;;;;;;;7.37;5.30;;;12.80;83.00;;;;;;5016442;28;20476;-78
2022/10/31 08:42:08;;;;;;;8.33;5.73;;;12.80;83.00;;;;;;5008136;28;20539;-78
2022/10/31 08:44:36;;;;;;;13.97;6.93;;;12.90;83.10;;;;;;5000925;28;20489;-77
2022/10/31 08:47:06;;;;;;;8.93;6.40;;;12.90;83.10;;;;;;5004908;28;20565;-77
2022/10/31 08:49:34;;;;;;;8.67;6.10;;;12.90;82.90;;;;;;5000136;28;20481;-77
2022/10/31 08:52:03;;;;;;;9.37;5.80;;;12.80;83.10;;;;;;4998669;28;20464;-77
2022/10/31 08:54:36;;;;;;;8.20;5.83;;;12.80;83.30;;;;;;4996700;28;20538;-77
2022/10/31 08:57:26;;;;;;;17.63;6.13;;;12.80;83.30;;;;;;4987020;28;20814;-76
2022/10/31 08:59:54;;;;;;;23.87;5.77;;;12.90;83.30;;;;;;5019781;28;20467;-78
2022/10/31 09:02:31;;;;;;;12.43;6.37;;;12.90;83.20;;;;;;5004795;28;21303;-76
2022/10/31 09:05:00;;;;;;;12.73;5.70;;;12.80;83.20;;;;;;5004838;28;20461;-76
2022/10/31 09:07:29;;;;;;;8.87;5.67;;;12.70;83.30;;;;;;5016589;28;20456;-76
2022/10/31 09:09:58;;;;;;;22.47;8.00;;;12.60;83.50;;;;;;5006410;28;20500;-76
2022/10/31 09:12:31;;;;;;;12.87;6.87;;;12.50;83.60;;;;;;5004250;28;20559;-77
2022/10/31 09:15:22;;;;;;;17.40;7.83;;;12.50;83.80;;;;;;4993940;28;20488;-77
2022/10/31 09:17:57;;;;;;;20.30;7.87;;;12.50;84.00;;;;;;5005742;28;20844;-76
2022/10/31 09:20:34;;;;;;;19.43;6.60;;;12.50;84.20;;;;;;4999363;28;20464;-78
2022/10/31 09:23:04;;;;;;;15.07;6.67;;;12.50;84.30;;;;;;5004910;28;21195;-77
2022/10/31 09:25:35;;;;;;;11.83;7.87;;;12.50;84.40;;;;;;5015458;28;21009;-77
2022/10/31 09:28:24;;;;;;;11.17;6.70;;;12.50;84.50;;;;;;5000890;28;21267;-77
2022/10/31 09:30:54;;;;;;;17.43;6.97;;;12.50;84.80;;;;;;5005547;28;20456;-77
2022/10/31 09:33:43;;;;;;;16.97;7.27;;;12.60;85.00;;;;;;5003922;28;20497;-75
2022/10/31 09:36:38;;;;;;;17.03;6.40;;;12.60;84.90;;;;;;4997799;28;20520;-77
2022/10/31 09:39:09;;;;;;;24.27;8.20;;;12.70;84.90;;;;;;5021238;28;21154;-76
2022/10/31 09:41:55;;;;;;;12.00;6.73;;;12.70;84.80;;;;;;5015179;28;20472;-76
2022/10/31 09:44:33;;;;;;;12.07;8.23;;;12.70;85.00;;;;;;5000126;28;20464;-78
2022/10/31 09:47:11;;;;;;;11.77;8.27;;;12.70;85.20;;;;;;5016626;28;20484;-76
2022/10/31 09:50:02;;;;;;;14.97;8.30;;;12.80;85.30;;;;;;5005490;28;20878;-77
2022/10/31 09:52:33;;;;;;;21.13;8.00;;;12.80;85.30;;;;;;4998646;28;21263;-77
2022/10/31 09:55:14;;;;;;;14.37;8.43;;;12.80;85.20;;;;;;5004335;28;21296;-75
2022/10/31 09:57:43;;;;;;;29.10;11.10;;;12.90;85.30;;;;;;5005664;28;20832;-77
2022/10/31 10:00:17;;;;;;;35.10;10.07;;;12.90;85.30;;;;;;5009341;28;20450;-77
2022/10/31 10:02:52;;;;;;;11.80;8.80;;;12.90;85.30;;;;;;5003016;28;20457;-76
2022/10/31 10:05:24;;;;;;;13.80;8.40;;;12.90;85.40;;;;;;4995296;28;20462;-76
2022/10/31 10:08:00;;;;;;;32.53;7.90;;;12.90;85.50;;;;;;5015152;28;20457;-77
2022/10/31 10:10:51;;;;;;;17.13;8.30;;;12.90;85.40;;;;;;5003526;28;20975;-77
2022/10/31 10:14:05;;;;;;;21.03;9.13;;;12.90;85.40;;;;;;5002927;28;20962;-76
2022/10/31 10:16:49;;;;;;;17.17;9.03;;;12.90;85.60;;;;;;5003009;28;20523;-77
2022/10/31 10:19:28;;;;;;;14.30;8.50;;;12.90;85.70;;;;;;5024371;28;20525;-75
2022/10/31 10:22:05;;;;;;;12.13;8.03;;;12.90;85.90;;;;;;5002025;28;20508;-76
2022/10/31 10:24:49;;;;;;;17.07;9.10;;;13.00;86.00;;;;;;4995322;28;20458;-78
2022/10/31 10:27:27;;;;;;;16.60;9.73;;;13.00;86.10;;;;;;5000895;28;20472;-76
2022/10/31 10:30:02;;;;;;;14.83;9.33;;;13.00;86.00;;;;;;5008992;28;20959;-77
2022/10/31 10:32:36;;;;;;;15.33;9.57;;;13.00;86.20;;;;;;5007179;28;20999;-76
2022/10/31 10:35:21;;;;;;;14.40;9.13;;;13.00;86.40;;;;;;5006722;28;20894;-76
2022/10/31 10:37:53;;;;;;;18.23;10.80;;;13.10;86.40;;;;;;5025036;28;20462;-76
2022/10/31 10:40:24;;;;;;;18.47;12.17;;;13.10;86.40;;;;;;5004969;28;20872;-76
2022/10/31 10:48:50;;;;;;;27.17;16.07;;;13.20;86.70;;;;;;5003024;28;20493;-75
2022/10/31 10:51:23;;;;;;;21.30;14.00;;;13.30;86.80;;;;;;5011623;28;20456;-76
2022/10/31 10:54:49;;;;;;;23.57;13.53;;;13.40;86.80;;;;;;5005323;28;20997;-76
2022/10/31 10:57:30;;;;;;;22.37;13.20;;;13.40;86.80;;;;;;4976245;28;21001;-76
2022/10/31 11:00:01;;;;;;;22.67;14.10;;;13.50;86.80;;;;;;5005227;28;20514;-76
2022/10/31 11:02:33;;;;;;;22.73;13.63;;;13.60;86.90;;;;;;5000798;28;20457;-78
2022/10/31 11:05:02;;;;;;;22.20;12.60;;;13.60;86.90;;;;;;5012185;28;20455;-76
2022/10/31 11:07:39;;;;;;;23.80;13.50;;;13.70;86.90;;;;;;5010327;28;20454;-78
2022/10/31 11:10:14;;;;;;;18.70;12.07;;;13.70;86.90;;;;;;5008404;28;21376;-76
2022/10/31 11:12:46;;;;;;;23.23;13.90;;;13.70;86.90;;;;;;5006573;28;20483;-76
2022/10/31 11:15:21;;;;;;;25.93;16.87;;;13.70;87.20;;;;;;4999178;28;20507;-78
2022/10/31 11:17:52;;;;;;;28.57;18.13;;;13.70;87.00;;;;;;5004089;28;20456;-77
2022/10/31 11:20:31;;;;;;;31.13;15.87;;;13.70;87.20;;;;;;5024636;28;20454;-77
2022/10/31 11:23:06;;;;;;;26.40;16.13;;;13.70;87.30;;;;;;5004090;28;20486;-77
2022/10/31 11:25:34;;;;;;;34.23;16.80;;;13.80;87.30;;;;;;5008675;28;20472;-77
2022/10/31 11:28:06;;;;;;;31.30;17.53;;;13.90;87.30;;;;;;5017339;28;20514;-77
2022/10/31 11:30:44;;;;;;;31.23;17.67;;;13.90;87.30;;;;;;5013922;28;20843;-77
2022/10/31 11:33:19;;;;;;;26.27;17.90;;;13.90;87.30;;;;;;5007221;28;20468;-77
2022/10/31 11:35:49;;;;;;;32.57;18.33;;;13.90;87.30;;;;;;5008893;28;20474;-77
2022/10/31 11:38:34;;;;;;;31.50;18.83;;;13.90;87.60;;;;;;5028202;28;20884;-77
2022/10/31 11:41:12;;;;;;;32.90;19.73;;;13.90;87.70;;;;;;5010893;28;20471;-77
2022/10/31 11:43:51;;;;;;;35.10;19.30;;;14.00;87.80;;;;;;5014863;28;20458;-77
2022/10/31 11:46:25;;;;;;;32.87;18.70;;;14.00;87.70;;;;;;5006079;28;20481;-77
2022/10/31 11:48:55;;;;;;;28.83;17.43;;;14.10;87.70;;;;;;5009486;28;20459;-78
2022/10/31 11:51:34;;;;;;;30.00;18.93;;;14.10;87.80;;;;;;5012096;28;20475;-77
2022/10/31 11:54:04;;;;;;;30.30;18.07;;;14.20;87.90;;;;;;5002343;28;20467;-77
2022/10/31 11:56:42;;;;;;;30.57;20.10;;;14.20;87.80;;;;;;5005163;28;20472;-77
2022/10/31 11:59:24;;;;;;;35.90;19.33;;;14.20;87.90;;;;;;5001598;28;20497;-77
2022/10/31 12:01:54;;;;;;;32.57;19.83;;;14.30;87.90;;;;;;5012078;28;20468;-77
2022/10/31 12:04:33;;;;;;;39.20;25.37;;;14.20;88.10;;;;;;5011779;28;20496;-77
2022/10/31 12:07:01;;;;;;;35.03;23.00;;;14.20;88.00;;;;;;5008022;28;20674;-77
2022/10/31 12:09:30;;;;;;;29.90;19.63;;;14.20;88.00;;;;;;4999750;28;20568;-76
2022/10/31 12:12:42;;;;;;;32.80;20.90;;;14.30;88.10;;;;;;5003262;28;20457;-76
2022/10/31 12:15:35;;;;;;;38.07;23.60;;;14.30;88.30;;;;;;5001756;28;20475;-77
2022/10/31 12:18:28;;;;;;;37.17;22.00;;;14.30;88.30;;;;;;5021284;28;20843;-76
2022/10/31 12:21:11;;;;;;;38.07;21.57;;;14.30;88.30;;;;;;5003189;28;20492;-78
2022/10/31 12:23:51;;;;;;;34.27;21.87;;;14.30;88.40;;;;;;5019855;28;20465;-77
2022/10/31 12:26:25;;;;;;;32.50;22.37;;;14.30;88.50;;;;;;5017717;28;21020;-76
2022/10/31 12:29:10;;;;;;;36.90;24.30;;;14.30;88.80;;;;;;5006531;28;20537;-78
2022/10/31 12:31:54;;;;;;;37.20;22.67;;;14.30;88.60;;;;;;4999196;28;20473;-77
2022/10/31 12:34:55;;;;;;;37.90;22.93;;;14.30;88.70;;;;;;5012852;28;20453;-77
2022/10/31 12:37:35;;;;;;;34.73;22.60;;;14.30;88.80;;;;;;5003503;28;20492;-76
2022/10/31 12:40:23;;;;;;;38.33;22.37;;;14.40;88.90;;;;;;4999807;28;20461;-79
2022/10/31 12:43:05;;;;;;;41.90;23.83;;;14.40;88.90;;;;;;5019735;28;20476;-76
2022/10/31 12:45:54;;;;;;;36.80;22.13;;;14.30;89.10;;;;;;5004742;28;20488;-77
2022/10/31 12:49:01;;;;;;;40.33;24.17;;;14.40;89.10;;;;;;5007594;28;20468;-75
2022/10/31 12:51:39;;;;;;;36.77;22.60;;;14.40;89.10;;;;;;4942296;28;20497;-76
2022/10/31 12:54:21;;;;;;;41.13;23.70;;;14.40;89.20;;;;;;5001238;28;20460;-78
2022/10/31 12:56:57;;;;;;;36.23;24.07;;;14.50;89.30;;;;;;5009308;28;20497;-78
2022/10/31 12:59:31;;;;;;;38.07;25.17;;;14.60;89.40;;;;;;5003872;28;20517;-77
2022/10/31 13:02:04;;;;;;;38.80;24.13;;;14.60;89.30;;;;;;5013993;28;20945;-78
2022/10/31 13:04:42;;;;;;;44.03;25.67;;;14.60;89.30;;;;;;5000785;28;20449;-78
2022/10/31 13:07:16;;;;;;;39.40;24.77;;;14.60;89.50;;;;;;4999365;28;20480;-78
2022/10/31 13:09:50;;;;;;;38.10;24.60;;;14.60;89.50;;;;;;5002106;28;20454;-78
2022/10/31 13:12:22;;;;;;;37.57;25.13;;;14.70;89.40;;;;;;4992654;28;20834;-77
2022/10/31 13:14:54;;;;;;;39.77;25.23;;;14.70;89.40;;;;;;5000424;28;20464;-77
2022/10/31 13:17:28;;;;;;;38.80;24.93;;;14.80;89.50;;;;;;5001187;28;20477;-77
2022/10/31 13:20:16;;;;;;;38.27;22.60;;;14.80;89.60;;;;;;5008495;28;20824;-78
2022/10/31 13:22:50;;;;;;;40.40;24.40;;;14.90;89.60;;;;;;5003879;28;20461;-78
2022/10/31 13:25:23;;;;;;;35.30;23.60;;;14.90;89.40;;;;;;4996343;28;21129;-77
2022/10/31 13:27:56;;;;;;;38.17;25.00;;;14.90;89.30;;;;;;5000815;28;21033;-78